Terminal Aerodrome Forecast
Issued by NWS Lake Charles, LA

Home | Current Version | Previous Version | Text Only | Print | Product List | Glossary On
Versions: 1 2 3 4 5 6 7 8 9 10 11 12 13
000
FTUS44 KLCH 241720
TAFLFT
TAF
KLFT 241720Z 2418/2518 13006KT P6SM VCTS FEW018 SCT025CB
      TEMPO 2418/2422 TSRA BKN018 OVC025CB
     FM250200 00000KT P6SM SCT050
     FM251500 VRB04KT P6SM VCTS SCT035CB=

USA.gov is the U.S. government's official web portal to all federal, state and local government web resources and services.